sensor_id;sensor_type;location;lat;lon;timestamp;P1;durP1;ratioP1;P2;durP2;ratioP2
45402;SDS011;47427;51.976;5.326;2023-04-03T00:00:51;19.38;;;17.88;;
45402;SDS011;47427;51.976;5.326;2023-04-03T00:04:12;19.17;;;18.02;;
45402;SDS011;47427;51.976;5.326;2023-04-03T00:07:34;20.02;;;18.55;;
45402;SDS011;47427;51.976;5.326;2023-04-03T00:10:55;19.17;;;18.00;;
45402;SDS011;47427;51.976;5.326;2023-04-03T00:14:18;18.70;;;17.50;;
45402;SDS011;47427;51.976;5.326;2023-04-03T00:17:41;19.08;;;17.83;;
45402;SDS011;47427;51.976;5.326;2023-04-03T00:21:03;19.50;;;17.88;;
45402;SDS011;47427;51.976;5.326;2023-04-03T00:24:27;19.55;;;18.02;;
45402;SDS011;47427;51.976;5.326;2023-04-03T00:27:50;18.95;;;17.60;;
45402;SDS011;47427;51.976;5.326;2023-04-03T00:31:14;19.25;;;17.80;;
45402;SDS011;47427;51.976;5.326;2023-04-03T00:34:46;19.50;;;17.95;;
45402;SDS011;47427;51.976;5.326;2023-04-03T00:38:08;19.23;;;18.13;;
45402;SDS011;47427;51.976;5.326;2023-04-03T00:41:31;19.58;;;18.38;;
45402;SDS011;47427;51.976;5.326;2023-04-03T00:48:20;18.98;;;17.45;;
45402;SDS011;47427;51.976;5.326;2023-04-03T00:51:57;18.65;;;17.63;;
45402;SDS011;47427;51.976;5.326;2023-04-03T00:55:40;18.58;;;17.38;;
45402;SDS011;47427;51.976;5.326;2023-04-03T01:02:31;19.10;;;17.90;;
45402;SDS011;47427;51.976;5.326;2023-04-03T01:05:54;18.95;;;17.60;;
45402;SDS011;47427;51.976;5.326;2023-04-03T01:09:17;19.13;;;17.85;;
45402;SDS011;47427;51.976;5.326;2023-04-03T01:12:39;18.85;;;17.75;;
45402;SDS011;47427;51.976;5.326;2023-04-03T01:16:05;19.08;;;17.83;;
45402;SDS011;47427;51.976;5.326;2023-04-03T01:19:28;19.90;;;18.55;;
45402;SDS011;47427;51.976;5.326;2023-04-03T01:26:27;18.80;;;17.60;;
45402;SDS011;47427;51.976;5.326;2023-04-03T01:29:49;19.15;;;17.80;;
45402;SDS011;47427;51.976;5.326;2023-04-03T01:33:12;19.40;;;18.20;;
45402;SDS011;47427;51.976;5.326;2023-04-03T01:36:35;18.98;;;17.52;;
45402;SDS011;47427;51.976;5.326;2023-04-03T01:39:58;19.42;;;17.98;;
45402;SDS011;47427;51.976;5.326;2023-04-03T01:43:19;18.95;;;17.50;;
45402;SDS011;47427;51.976;5.326;2023-04-03T01:46:42;18.33;;;17.23;;
45402;SDS011;47427;51.976;5.326;2023-04-03T01:50:05;18.90;;;17.48;;
45402;SDS011;47427;51.976;5.326;2023-04-03T01:53:28;18.80;;;17.58;;
45402;SDS011;47427;51.976;5.326;2023-04-03T01:56:51;18.92;;;17.67;;
45402;SDS011;47427;51.976;5.326;2023-04-03T02:00:14;18.63;;;17.30;;
45402;SDS011;47427;51.976;5.326;2023-04-03T02:03:37;18.10;;;16.90;;
45402;SDS011;47427;51.976;5.326;2023-04-03T02:07:00;18.30;;;17.20;;
45402;SDS011;47427;51.976;5.326;2023-04-03T02:10:21;18.10;;;16.90;;
45402;SDS011;47427;51.976;5.326;2023-04-03T02:13:44;19.45;;;17.75;;
45402;SDS011;47427;51.976;5.326;2023-04-03T02:17:07;18.15;;;16.95;;
45402;SDS011;47427;51.976;5.326;2023-04-03T02:20:29;17.55;;;16.38;;
45402;SDS011;47427;51.976;5.326;2023-04-03T02:23:52;18.75;;;17.55;;
45402;SDS011;47427;51.976;5.326;2023-04-03T02:27:13;17.63;;;16.60;;
45402;SDS011;47427;51.976;5.326;2023-04-03T02:30:36;17.90;;;16.65;;
45402;SDS011;47427;51.976;5.326;2023-04-03T02:33:59;18.20;;;16.80;;
45402;SDS011;47427;51.976;5.326;2023-04-03T02:37:20;18.65;;;17.23;;
45402;SDS011;47427;51.976;5.326;2023-04-03T02:40:45;18.67;;;17.38;;
45402;SDS011;47427;51.976;5.326;2023-04-03T02:44:09;18.30;;;17.20;;
45402;SDS011;47427;51.976;5.326;2023-04-03T02:47:34;17.85;;;16.65;;
45402;SDS011;47427;51.976;5.326;2023-04-03T02:50:58;18.35;;;17.10;;
45402;SDS011;47427;51.976;5.326;2023-04-03T02:54:20;18.42;;;17.30;;
45402;SDS011;47427;51.976;5.326;2023-04-03T02:57:49;18.30;;;17.08;;
45402;SDS011;47427;51.976;5.326;2023-04-03T03:01:11;18.55;;;17.35;;
45402;SDS011;47427;51.976;5.326;2023-04-03T03:04:33;19.30;;;17.80;;
45402;SDS011;47427;51.976;5.326;2023-04-03T03:07:57;18.98;;;17.67;;
45402;SDS011;47427;51.976;5.326;2023-04-03T03:11:20;19.45;;;17.73;;
45402;SDS011;47427;51.976;5.326;2023-04-03T03:14:41;18.50;;;17.20;;
45402;SDS011;47427;51.976;5.326;2023-04-03T03:18:04;18.63;;;17.33;;
45402;SDS011;47427;51.976;5.326;2023-04-03T03:21:26;18.58;;;17.05;;
45402;SDS011;47427;51.976;5.326;2023-04-03T03:24:49;18.15;;;16.85;;
45402;SDS011;47427;51.976;5.326;2023-04-03T03:28:12;19.75;;;18.33;;
45402;SDS011;47427;51.976;5.326;2023-04-03T03:31:34;18.75;;;17.55;;
45402;SDS011;47427;51.976;5.326;2023-04-03T03:34:57;19.52;;;17.90;;
45402;SDS011;47427;51.976;5.326;2023-04-03T03:38:20;19.13;;;17.40;;
45402;SDS011;47427;51.976;5.326;2023-04-03T03:41:42;19.20;;;17.55;;
45402;SDS011;47427;51.976;5.326;2023-04-03T03:45:05;19.52;;;17.83;;
45402;SDS011;47427;51.976;5.326;2023-04-03T03:48:27;18.80;;;17.45;;
45402;SDS011;47427;51.976;5.326;2023-04-03T03:51:51;19.25;;;17.40;;
45402;SDS011;47427;51.976;5.326;2023-04-03T03:55:14;19.63;;;18.23;;
45402;SDS011;47427;51.976;5.326;2023-04-03T03:58:35;19.88;;;18.30;;
45402;SDS011;47427;51.976;5.326;2023-04-03T04:01:58;19.45;;;18.15;;
45402;SDS011;47427;51.976;5.326;2023-04-03T04:05:41;19.48;;;18.10;;
45402;SDS011;47427;51.976;5.326;2023-04-03T04:09:04;19.83;;;18.30;;
45402;SDS011;47427;51.976;5.326;2023-04-03T04:12:27;19.90;;;18.63;;
45402;SDS011;47427;51.976;5.326;2023-04-03T04:15:49;22.15;;;20.15;;
45402;SDS011;47427;51.976;5.326;2023-04-03T04:19:13;20.00;;;18.42;;
45402;SDS011;47427;51.976;5.326;2023-04-03T04:26:00;18.95;;;17.75;;
45402;SDS011;47427;51.976;5.326;2023-04-03T04:29:25;20.17;;;18.47;;
45402;SDS011;47427;51.976;5.326;2023-04-03T04:32:47;19.85;;;18.35;;
45402;SDS011;47427;51.976;5.326;2023-04-03T04:36:10;19.35;;;17.80;;
45402;SDS011;47427;51.976;5.326;2023-04-03T04:39:33;19.55;;;18.15;;
45402;SDS011;47427;51.976;5.326;2023-04-03T04:42:55;20.40;;;18.48;;
45402;SDS011;47427;51.976;5.326;2023-04-03T04:46:38;28.65;;;25.50;;
45402;SDS011;47427;51.976;5.326;2023-04-03T04:50:02;24.83;;;22.55;;
45402;SDS011;47427;51.976;5.326;2023-04-03T04:53:27;33.67;;;30.67;;
45402;SDS011;47427;51.976;5.326;2023-04-03T04:56:51;29.17;;;26.65;;
45402;SDS011;47427;51.976;5.326;2023-04-03T05:00:12;22.88;;;21.20;;
45402;SDS011;47427;51.976;5.326;2023-04-03T05:03:35;23.55;;;21.65;;
45402;SDS011;47427;51.976;5.326;2023-04-03T05:06:59;23.33;;;21.17;;
45402;SDS011;47427;51.976;5.326;2023-04-03T05:10:23;24.27;;;22.42;;
45402;SDS011;47427;51.976;5.326;2023-04-03T05:14:06;24.23;;;22.48;;
45402;SDS011;47427;51.976;5.326;2023-04-03T05:17:29;23.27;;;21.20;;
45402;SDS011;47427;51.976;5.326;2023-04-03T05:20:53;91.35;;;55.58;;
45402;SDS011;47427;51.976;5.326;2023-04-03T05:24:18;43.47;;;34.05;;
45402;SDS011;47427;51.976;5.326;2023-04-03T05:27:40;32.45;;;29.13;;
45402;SDS011;47427;51.976;5.326;2023-04-03T05:31:03;31.70;;;28.33;;
45402;SDS011;47427;51.976;5.326;2023-04-03T05:34:30;24.48;;;22.45;;
45402;SDS011;47427;51.976;5.326;2023-04-03T05:37:52;23.13;;;21.23;;
45402;SDS011;47427;51.976;5.326;2023-04-03T05:41:16;22.05;;;20.05;;
45402;SDS011;47427;51.976;5.326;2023-04-03T05:44:41;23.60;;;21.80;;
45402;SDS011;47427;51.976;5.326;2023-04-03T05:48:04;23.88;;;21.88;;
45402;SDS011;47427;51.976;5.326;2023-04-03T05:51:29;24.48;;;22.55;;
45402;SDS011;47427;51.976;5.326;2023-04-03T05:55:16;24.67;;;22.67;;
45402;SDS011;47427;51.976;5.326;2023-04-03T05:58:39;23.40;;;21.42;;
45402;SDS011;47427;51.976;5.326;2023-04-03T06:02:01;23.05;;;21.00;;
45402;SDS011;47427;51.976;5.326;2023-04-03T06:05:25;24.63;;;22.50;;
45402;SDS011;47427;51.976;5.326;2023-04-03T06:08:47;23.65;;;21.73;;
45402;SDS011;47427;51.976;5.326;2023-04-03T06:12:09;23.20;;;21.60;;
45402;SDS011;47427;51.976;5.326;2023-04-03T06:15:33;23.17;;;21.25;;
45402;SDS011;47427;51.976;5.326;2023-04-03T06:18:55;21.88;;;20.17;;
45402;SDS011;47427;51.976;5.326;2023-04-03T06:22:18;21.08;;;19.30;;
45402;SDS011;47427;51.976;5.326;2023-04-03T06:25:41;23.40;;;21.27;;
45402;SDS011;47427;51.976;5.326;2023-04-03T06:29:03;22.50;;;20.88;;
45402;SDS011;47427;51.976;5.326;2023-04-03T06:32:26;23.52;;;21.77;;
45402;SDS011;47427;51.976;5.326;2023-04-03T06:35:49;23.10;;;21.35;;
45402;SDS011;47427;51.976;5.326;2023-04-03T06:39:14;22.27;;;20.50;;
45402;SDS011;47427;51.976;5.326;2023-04-03T06:42:39;22.27;;;20.33;;
45402;SDS011;47427;51.976;5.326;2023-04-03T06:46:05;22.52;;;20.70;;
45402;SDS011;47427;51.976;5.326;2023-04-03T06:49:27;21.08;;;19.45;;
45402;SDS011;47427;51.976;5.326;2023-04-03T06:52:50;20.58;;;18.83;;
45402;SDS011;47427;51.976;5.326;2023-04-03T06:56:12;19.95;;;18.42;;
45402;SDS011;47427;51.976;5.326;2023-04-03T06:59:35;21.10;;;19.20;;
45402;SDS011;47427;51.976;5.326;2023-04-03T07:02:58;18.45;;;16.90;;
45402;SDS011;47427;51.976;5.326;2023-04-03T07:06:20;18.65;;;17.40;;
45402;SDS011;47427;51.976;5.326;2023-04-03T07:09:43;19.02;;;17.58;;
45402;SDS011;47427;51.976;5.326;2023-04-03T07:13:06;18.73;;;17.42;;
45402;SDS011;47427;51.976;5.326;2023-04-03T07:16:28;17.90;;;16.48;;
45402;SDS011;47427;51.976;5.326;2023-04-03T07:19:52;17.75;;;16.45;;
45402;SDS011;47427;51.976;5.326;2023-04-03T07:23:14;19.15;;;17.27;;
45402;SDS011;47427;51.976;5.326;2023-04-03T07:26:38;17.67;;;16.38;;
45402;SDS011;47427;51.976;5.326;2023-04-03T07:30:01;17.85;;;16.60;;
45402;SDS011;47427;51.976;5.326;2023-04-03T07:33:23;18.10;;;16.75;;
45402;SDS011;47427;51.976;5.326;2023-04-03T07:36:46;17.48;;;16.33;;
45402;SDS011;47427;51.976;5.326;2023-04-03T07:40:11;18.42;;;17.02;;
45402;SDS011;47427;51.976;5.326;2023-04-03T07:47:16;19.70;;;17.90;;
45402;SDS011;47427;51.976;5.326;2023-04-03T07:50:42;17.65;;;16.35;;
45402;SDS011;47427;51.976;5.326;2023-04-03T07:54:05;19.08;;;17.67;;
45402;SDS011;47427;51.976;5.326;2023-04-03T07:57:27;20.15;;;18.55;;
45402;SDS011;47427;51.976;5.326;2023-04-03T08:00:49;17.05;;;16.00;;
45402;SDS011;47427;51.976;5.326;2023-04-03T08:04:12;19.27;;;17.88;;
45402;SDS011;47427;51.976;5.326;2023-04-03T08:07:34;19.58;;;18.15;;
45402;SDS011;47427;51.976;5.326;2023-04-03T08:11:00;21.75;;;19.63;;
45402;SDS011;47427;51.976;5.326;2023-04-03T08:14:24;19.95;;;18.27;;
45402;SDS011;47427;51.976;5.326;2023-04-03T08:17:46;18.90;;;17.20;;
45402;SDS011;47427;51.976;5.326;2023-04-03T08:21:09;20.17;;;18.85;;
45402;SDS011;47427;51.976;5.326;2023-04-03T08:24:32;20.02;;;18.52;;
45402;SDS011;47427;51.976;5.326;2023-04-03T08:27:56;18.98;;;17.58;;
45402;SDS011;47427;51.976;5.326;2023-04-03T08:31:19;18.33;;;17.05;;
45402;SDS011;47427;51.976;5.326;2023-04-03T08:34:40;18.42;;;17.13;;
45402;SDS011;47427;51.976;5.326;2023-04-03T08:38:03;23.80;;;21.75;;
45402;SDS011;47427;51.976;5.326;2023-04-03T08:41:31;20.63;;;19.10;;
45402;SDS011;47427;51.976;5.326;2023-04-03T08:45:01;18.33;;;17.02;;
45402;SDS011;47427;51.976;5.326;2023-04-03T08:48:36;18.90;;;17.50;;
45402;SDS011;47427;51.976;5.326;2023-04-03T08:52:05;19.42;;;18.13;;
45402;SDS011;47427;51.976;5.326;2023-04-03T08:55:37;18.58;;;17.48;;
45402;SDS011;47427;51.976;5.326;2023-04-03T08:59:14;18.48;;;17.15;;
45402;SDS011;47427;51.976;5.326;2023-04-03T09:02:48;20.15;;;18.70;;
45402;SDS011;47427;51.976;5.326;2023-04-03T09:06:22;18.25;;;17.15;;
45402;SDS011;47427;51.976;5.326;2023-04-03T09:09:51;18.50;;;17.20;;
45402;SDS011;47427;51.976;5.326;2023-04-03T09:13:30;18.33;;;17.02;;
45402;SDS011;47427;51.976;5.326;2023-04-03T09:17:07;18.60;;;17.40;;
45402;SDS011;47427;51.976;5.326;2023-04-03T09:24:37;17.20;;;16.15;;
45402;SDS011;47427;51.976;5.326;2023-04-03T09:28:00;16.83;;;15.93;;
45402;SDS011;47427;51.976;5.326;2023-04-03T09:31:26;17.30;;;16.35;;
45402;SDS011;47427;51.976;5.326;2023-04-03T09:34:51;18.88;;;17.70;;
45402;SDS011;47427;51.976;5.326;2023-04-03T09:38:19;18.88;;;17.75;;
45402;SDS011;47427;51.976;5.326;2023-04-03T09:41:55;19.73;;;18.52;;
45402;SDS011;47427;51.976;5.326;2023-04-03T09:45:35;17.35;;;16.35;;
45402;SDS011;47427;51.976;5.326;2023-04-03T09:48:58;17.88;;;16.88;;
45402;SDS011;47427;51.976;5.326;2023-04-03T09:52:24;17.13;;;16.23;;
45402;SDS011;47427;51.976;5.326;2023-04-03T09:55:48;16.23;;;15.32;;
45402;SDS011;47427;51.976;5.326;2023-04-03T09:59:14;16.88;;;15.98;;
45402;SDS011;47427;51.976;5.326;2023-04-03T10:02:38;17.40;;;16.50;;
45402;SDS011;47427;51.976;5.326;2023-04-03T10:06:01;18.52;;;17.52;;
45402;SDS011;47427;51.976;5.326;2023-04-03T10:09:41;20.77;;;19.35;;
45402;SDS011;47427;51.976;5.326;2023-04-03T10:13:20;17.90;;;17.00;;
45402;SDS011;47427;51.976;5.326;2023-04-03T10:16:46;18.08;;;17.08;;
45402;SDS011;47427;51.976;5.326;2023-04-03T10:20:33;18.23;;;17.23;;
45402;SDS011;47427;51.976;5.326;2023-04-03T10:24:28;17.63;;;16.63;;
45402;SDS011;47427;51.976;5.326;2023-04-03T10:32:15;17.65;;;16.75;;
45402;SDS011;47427;51.976;5.326;2023-04-03T10:50:53;19.50;;;18.38;;
45402;SDS011;47427;51.976;5.326;2023-04-03T10:54:40;17.75;;;16.85;;
45402;SDS011;47427;51.976;5.326;2023-04-03T10:58:34;17.50;;;16.60;;
45402;SDS011;47427;51.976;5.326;2023-04-03T11:02:23;21.13;;;19.73;;
45402;SDS011;47427;51.976;5.326;2023-04-03T11:05:55;18.95;;;17.70;;
45402;SDS011;47427;51.976;5.326;2023-04-03T11:09:27;18.30;;;17.20;;
45402;SDS011;47427;51.976;5.326;2023-04-03T11:12:59;18.77;;;17.42;;
45402;SDS011;47427;51.976;5.326;2023-04-03T11:16:28;17.98;;;16.98;;
45402;SDS011;47427;51.976;5.326;2023-04-03T11:20:06;18.15;;;17.17;;
45402;SDS011;47427;51.976;5.326;2023-04-03T11:23:41;18.60;;;17.40;;
45402;SDS011;47427;51.976;5.326;2023-04-03T11:27:05;18.23;;;17.33;;
45402;SDS011;47427;51.976;5.326;2023-04-03T11:34:30;19.13;;;17.98;;
45402;SDS011;47427;51.976;5.326;2023-04-03T11:38:02;19.70;;;18.30;;
45402;SDS011;47427;51.976;5.326;2023-04-03T11:41:30;18.25;;;17.15;;
45402;SDS011;47427;51.976;5.326;2023-04-03T11:48:46;17.63;;;16.73;;
45402;SDS011;47427;51.976;5.326;2023-04-03T11:52:11;17.23;;;16.30;;
45402;SDS011;47427;51.976;5.326;2023-04-03T12:02:43;17.67;;;16.60;;
45402;SDS011;47427;51.976;5.326;2023-04-03T12:09:53;17.15;;;16.15;;
45402;SDS011;47427;51.976;5.326;2023-04-03T12:13:18;17.85;;;16.67;;
45402;SDS011;47427;51.976;5.326;2023-04-03T12:16:42;17.23;;;16.20;;
45402;SDS011;47427;51.976;5.326;2023-04-03T12:27:38;18.08;;;16.95;;
45402;SDS011;47427;51.976;5.326;2023-04-03T12:31:03;17.90;;;16.90;;
45402;SDS011;47427;51.976;5.326;2023-04-03T12:38:37;17.58;;;16.42;;
45402;SDS011;47427;51.976;5.326;2023-04-03T12:42:32;17.52;;;16.52;;
45402;SDS011;47427;51.976;5.326;2023-04-03T12:46:36;17.27;;;16.38;;
45402;SDS011;47427;51.976;5.326;2023-04-03T12:50:04;18.90;;;17.80;;
45402;SDS011;47427;51.976;5.326;2023-04-03T12:53:48;18.10;;;17.00;;
45402;SDS011;47427;51.976;5.326;2023-04-03T13:01:27;18.33;;;17.25;;
45402;SDS011;47427;51.976;5.326;2023-04-03T13:04:50;18.23;;;17.20;;
45402;SDS011;47427;51.976;5.326;2023-04-03T13:08:26;17.60;;;16.70;;
45402;SDS011;47427;51.976;5.326;2023-04-03T13:11:48;17.58;;;16.67;;
45402;SDS011;47427;51.976;5.326;2023-04-03T13:15:14;18.27;;;17.15;;
45402;SDS011;47427;51.976;5.326;2023-04-03T13:18:42;18.45;;;17.27;;
45402;SDS011;47427;51.976;5.326;2023-04-03T13:22:19;17.77;;;16.77;;
45402;SDS011;47427;51.976;5.326;2023-04-03T13:25:59;18.30;;;17.20;;
45402;SDS011;47427;51.976;5.326;2023-04-03T13:29:28;17.98;;;16.95;;
45402;SDS011;47427;51.976;5.326;2023-04-03T13:32:54;17.35;;;16.45;;
45402;SDS011;47427;51.976;5.326;2023-04-03T13:36:19;17.73;;;16.73;;
45402;SDS011;47427;51.976;5.326;2023-04-03T13:39:55;18.67;;;17.27;;
45402;SDS011;47427;51.976;5.326;2023-04-03T13:43:37;17.95;;;16.90;;
45402;SDS011;47427;51.976;5.326;2023-04-03T13:47:14;18.17;;;17.08;;
45402;SDS011;47427;51.976;5.326;2023-04-03T13:50:57;18.35;;;16.65;;
45402;SDS011;47427;51.976;5.326;2023-04-03T13:54:38;17.50;;;16.30;;
45402;SDS011;47427;51.976;5.326;2023-04-03T13:58:18;17.67;;;16.38;;
45402;SDS011;47427;51.976;5.326;2023-04-03T14:01:50;17.52;;;16.42;;
45402;SDS011;47427;51.976;5.326;2023-04-03T14:05:24;17.13;;;16.13;;
45402;SDS011;47427;51.976;5.326;2023-04-03T14:08:47;16.80;;;15.73;;
45402;SDS011;47427;51.976;5.326;2023-04-03T14:12:18;16.73;;;15.82;;
45402;SDS011;47427;51.976;5.326;2023-04-03T14:16:11;17.13;;;16.10;;
45402;SDS011;47427;51.976;5.326;2023-04-03T14:19:44;18.20;;;16.80;;
45402;SDS011;47427;51.976;5.326;2023-04-03T14:23:08;17.02;;;16.00;;
45402;SDS011;47427;51.976;5.326;2023-04-03T14:26:31;17.40;;;16.10;;
45402;SDS011;47427;51.976;5.326;2023-04-03T14:29:53;16.45;;;15.55;;
45402;SDS011;47427;51.976;5.326;2023-04-03T14:33:19;17.83;;;16.85;;
45402;SDS011;47427;51.976;5.326;2023-04-03T14:36:44;18.10;;;17.10;;
45402;SDS011;47427;51.976;5.326;2023-04-03T14:40:07;18.83;;;17.35;;
45402;SDS011;47427;51.976;5.326;2023-04-03T14:43:35;19.00;;;17.73;;
45402;SDS011;47427;51.976;5.326;2023-04-03T14:46:57;19.70;;;18.15;;
45402;SDS011;47427;51.976;5.326;2023-04-03T14:50:22;21.65;;;20.02;;
45402;SDS011;47427;51.976;5.326;2023-04-03T14:53:49;19.83;;;18.40;;
45402;SDS011;47427;51.976;5.326;2023-04-03T14:57:11;19.45;;;18.15;;
45402;SDS011;47427;51.976;5.326;2023-04-03T15:00:37;18.83;;;17.45;;
45402;SDS011;47427;51.976;5.326;2023-04-03T15:03:58;18.33;;;17.23;;
45402;SDS011;47427;51.976;5.326;2023-04-03T15:07:21;20.75;;;19.42;;
45402;SDS011;47427;51.976;5.326;2023-04-03T15:10:47;18.17;;;17.08;;
45402;SDS011;47427;51.976;5.326;2023-04-03T15:14:09;18.25;;;16.95;;
45402;SDS011;47427;51.976;5.326;2023-04-03T15:17:31;18.55;;;17.42;;
45402;SDS011;47427;51.976;5.326;2023-04-03T15:20:56;18.20;;;17.17;;
45402;SDS011;47427;51.976;5.326;2023-04-03T15:24:17;18.00;;;17.00;;
45402;SDS011;47427;51.976;5.326;2023-04-03T15:27:59;18.02;;;16.77;;
45402;SDS011;47427;51.976;5.326;2023-04-03T15:31:22;18.45;;;17.25;;
45402;SDS011;47427;51.976;5.326;2023-04-03T15:34:44;18.40;;;17.10;;
45402;SDS011;47427;51.976;5.326;2023-04-03T15:38:07;18.70;;;17.08;;
45402;SDS011;47427;51.976;5.326;2023-04-03T15:41:30;19.88;;;18.33;;
45402;SDS011;47427;51.976;5.326;2023-04-03T15:44:52;19.95;;;18.50;;
45402;SDS011;47427;51.976;5.326;2023-04-03T15:48:14;18.58;;;17.38;;
45402;SDS011;47427;51.976;5.326;2023-04-03T15:51:36;18.13;;;16.95;;
45402;SDS011;47427;51.976;5.326;2023-04-03T15:54:59;17.98;;;16.83;;
45402;SDS011;47427;51.976;5.326;2023-04-03T15:58:20;18.75;;;17.30;;
45402;SDS011;47427;51.976;5.326;2023-04-03T16:02:02;21.95;;;20.38;;
45402;SDS011;47427;51.976;5.326;2023-04-03T16:05:27;22.23;;;20.37;;
45402;SDS011;47427;51.976;5.326;2023-04-03T16:08:49;18.25;;;17.05;;
45402;SDS011;47427;51.976;5.326;2023-04-03T16:12:11;18.90;;;17.67;;
45402;SDS011;47427;51.976;5.326;2023-04-03T16:15:33;18.92;;;17.73;;
45402;SDS011;47427;51.976;5.326;2023-04-03T16:18:57;19.27;;;17.92;;
45402;SDS011;47427;51.976;5.326;2023-04-03T16:22:20;18.70;;;17.60;;
45402;SDS011;47427;51.976;5.326;2023-04-03T16:25:42;18.65;;;17.25;;
45402;SDS011;47427;51.976;5.326;2023-04-03T16:29:08;18.08;;;16.67;;
45402;SDS011;47427;51.976;5.326;2023-04-03T16:32:31;17.17;;;16.17;;
45402;SDS011;47427;51.976;5.326;2023-04-03T16:35:53;22.77;;;21.13;;
45402;SDS011;47427;51.976;5.326;2023-04-03T16:39:16;20.02;;;18.83;;
45402;SDS011;47427;51.976;5.326;2023-04-03T16:42:38;19.23;;;17.92;;
45402;SDS011;47427;51.976;5.326;2023-04-03T16:46:01;20.90;;;19.38;;
45402;SDS011;47427;51.976;5.326;2023-04-03T16:49:44;19.58;;;18.27;;
45402;SDS011;47427;51.976;5.326;2023-04-03T16:53:07;18.60;;;17.40;;
45402;SDS011;47427;51.976;5.326;2023-04-03T16:56:31;18.85;;;17.38;;
45402;SDS011;47427;51.976;5.326;2023-04-03T16:59:53;19.45;;;18.15;;
45402;SDS011;47427;51.976;5.326;2023-04-03T17:03:16;18.67;;;17.48;;
45402;SDS011;47427;51.976;5.326;2023-04-03T17:06:39;18.27;;;16.98;;
45402;SDS011;47427;51.976;5.326;2023-04-03T17:10:01;17.60;;;16.50;;
45402;SDS011;47427;51.976;5.326;2023-04-03T17:17:07;19.85;;;18.45;;
45402;SDS011;47427;51.976;5.326;2023-04-03T17:20:30;18.63;;;17.42;;
45402;SDS011;47427;51.976;5.326;2023-04-03T17:23:56;19.25;;;17.58;;
45402;SDS011;47427;51.976;5.326;2023-04-03T17:27:23;17.83;;;16.52;;
45402;SDS011;47427;51.976;5.326;2023-04-03T17:30:47;22.67;;;21.02;;
45402;SDS011;47427;51.976;5.326;2023-04-03T17:34:09;18.08;;;16.88;;
45402;SDS011;47427;51.976;5.326;2023-04-03T17:37:32;18.33;;;17.13;;
45402;SDS011;47427;51.976;5.326;2023-04-03T17:40:58;18.67;;;17.27;;
45402;SDS011;47427;51.976;5.326;2023-04-03T17:44:27;18.00;;;16.70;;
45402;SDS011;47427;51.976;5.326;2023-04-03T17:47:50;17.60;;;16.40;;
45402;SDS011;47427;51.976;5.326;2023-04-03T17:51:15;17.58;;;16.33;;
45402;SDS011;47427;51.976;5.326;2023-04-03T17:54:40;17.85;;;16.55;;
45402;SDS011;47427;51.976;5.326;2023-04-03T17:58:03;17.30;;;15.90;;
45402;SDS011;47427;51.976;5.326;2023-04-03T18:01:28;17.23;;;16.15;;
45402;SDS011;47427;51.976;5.326;2023-04-03T18:04:52;17.33;;;16.17;;
45402;SDS011;47427;51.976;5.326;2023-04-03T18:08:15;18.25;;;17.05;;
45402;SDS011;47427;51.976;5.326;2023-04-03T18:11:38;18.00;;;16.80;;
45402;SDS011;47427;51.976;5.326;2023-04-03T18:15:01;18.13;;;16.83;;
45402;SDS011;47427;51.976;5.326;2023-04-03T18:18:25;18.95;;;17.52;;
45402;SDS011;47427;51.976;5.326;2023-04-03T18:21:47;17.63;;;16.48;;
45402;SDS011;47427;51.976;5.326;2023-04-03T18:25:10;17.88;;;16.48;;
45402;SDS011;47427;51.976;5.326;2023-04-03T18:28:35;18.15;;;16.83;;
45402;SDS011;47427;51.976;5.326;2023-04-03T18:31:57;17.60;;;16.60;;
45402;SDS011;47427;51.976;5.326;2023-04-03T18:35:25;17.63;;;16.33;;
45402;SDS011;47427;51.976;5.326;2023-04-03T18:38:46;16.85;;;15.60;;
45402;SDS011;47427;51.976;5.326;2023-04-03T18:42:27;17.20;;;15.80;;
45402;SDS011;47427;51.976;5.326;2023-04-03T18:45:50;17.30;;;15.70;;
45402;SDS011;47427;51.976;5.326;2023-04-03T18:49:12;16.52;;;15.20;;
45402;SDS011;47427;51.976;5.326;2023-04-03T18:52:36;15.68;;;14.50;;
45402;SDS011;47427;51.976;5.326;2023-04-03T18:55:57;17.10;;;15.57;;
45402;SDS011;47427;51.976;5.326;2023-04-03T18:59:38;16.38;;;15.25;;
45402;SDS011;47427;51.976;5.326;2023-04-03T19:03:00;19.48;;;18.00;;
45402;SDS011;47427;51.976;5.326;2023-04-03T19:06:21;16.65;;;15.50;;
45402;SDS011;47427;51.976;5.326;2023-04-03T19:09:45;20.10;;;18.70;;
45402;SDS011;47427;51.976;5.326;2023-04-03T19:13:07;18.83;;;17.50;;
45402;SDS011;47427;51.976;5.326;2023-04-03T19:16:31;19.80;;;18.02;;
45402;SDS011;47427;51.976;5.326;2023-04-03T19:20:14;18.92;;;17.67;;
45402;SDS011;47427;51.976;5.326;2023-04-03T19:23:35;19.20;;;17.80;;
45402;SDS011;47427;51.976;5.326;2023-04-03T19:26:57;19.42;;;18.23;;
45402;SDS011;47427;51.976;5.326;2023-04-03T19:30:20;19.38;;;18.08;;
45402;SDS011;47427;51.976;5.326;2023-04-03T19:33:44;19.35;;;17.95;;
45402;SDS011;47427;51.976;5.326;2023-04-03T19:37:07;20.08;;;18.60;;
45402;SDS011;47427;51.976;5.326;2023-04-03T19:40:30;22.67;;;20.80;;
45402;SDS011;47427;51.976;5.326;2023-04-03T19:43:54;21.73;;;19.88;;
45402;SDS011;47427;51.976;5.326;2023-04-03T19:47:18;18.45;;;17.25;;
45402;SDS011;47427;51.976;5.326;2023-04-03T19:50:41;20.40;;;18.88;;
45402;SDS011;47427;51.976;5.326;2023-04-03T19:54:04;18.27;;;17.00;;
45402;SDS011;47427;51.976;5.326;2023-04-03T19:57:27;18.08;;;16.75;;
45402;SDS011;47427;51.976;5.326;2023-04-03T20:00:49;18.02;;;16.77;;
45402;SDS011;47427;51.976;5.326;2023-04-03T20:04:12;32.53;;;26.75;;
45402;SDS011;47427;51.976;5.326;2023-04-03T20:07:54;101.20;;;54.35;;
45402;SDS011;47427;51.976;5.326;2023-04-03T20:11:17;48.55;;;34.33;;
45402;SDS011;47427;51.976;5.326;2023-04-03T20:14:41;58.90;;;37.97;;
45402;SDS011;47427;51.976;5.326;2023-04-03T20:18:09;102.55;;;55.70;;
45402;SDS011;47427;51.976;5.326;2023-04-03T20:21:38;81.15;;;50.30;;
45402;SDS011;47427;51.976;5.326;2023-04-03T20:25:01;65.30;;;44.00;;
45402;SDS011;47427;51.976;5.326;2023-04-03T20:28:27;54.58;;;40.05;;
45402;SDS011;47427;51.976;5.326;2023-04-03T20:31:50;50.33;;;35.95;;
45402;SDS011;47427;51.976;5.326;2023-04-03T20:35:13;35.50;;;29.15;;
45402;SDS011;47427;51.976;5.326;2023-04-03T20:38:36;32.70;;;27.15;;
45402;SDS011;47427;51.976;5.326;2023-04-03T20:41:59;25.48;;;23.08;;
45402;SDS011;47427;51.976;5.326;2023-04-03T20:45:20;22.85;;;20.85;;
45402;SDS011;47427;51.976;5.326;2023-04-03T20:48:44;20.73;;;19.13;;
45402;SDS011;47427;51.976;5.326;2023-04-03T20:52:10;21.17;;;19.38;;
45402;SDS011;47427;51.976;5.326;2023-04-03T20:55:31;19.98;;;18.58;;
45402;SDS011;47427;51.976;5.326;2023-04-03T20:58:54;19.77;;;18.27;;
45402;SDS011;47427;51.976;5.326;2023-04-03T21:02:17;21.02;;;19.33;;
45402;SDS011;47427;51.976;5.326;2023-04-03T21:05:41;20.70;;;19.00;;
45402;SDS011;47427;51.976;5.326;2023-04-03T21:21:28;18.42;;;17.08;;
45402;SDS011;47427;51.976;5.326;2023-04-03T21:24:52;18.23;;;16.80;;
45402;SDS011;47427;51.976;5.326;2023-04-03T21:28:13;18.70;;;17.13;;
45402;SDS011;47427;51.976;5.326;2023-04-03T21:35:16;17.63;;;16.33;;
45402;SDS011;47427;51.976;5.326;2023-04-03T21:38:39;18.15;;;16.70;;